Time;durP1;ratioP1;P1;durP2;ratioP2;P2;SDS_P1;SDS_P2;PMS_P1;PMS_P2;Temp;Humidity;BMP_temperature;BMP_pressure;BME280_temperature;BME280_humidity;BME280_pressure;Samples;Min_cycle;Max_cycle;Signal;HPM_P1;HPM_P2
2021/11/23 00:00:08;;;;;;;105.13;34.20;;;0.20;99.90;;;;;;4994388;28;20026;-72
2021/11/23 00:02:35;;;;;;;82.78;33.08;;;0.20;99.90;;;;;;4977636;28;20034;-72
2021/11/23 00:05:00;;;;;;;113.47;40.92;;;0.10;99.90;;;;;;4994153;28;20121;-73
2021/11/23 00:07:26;;;;;;;117.93;44.65;;;0.10;99.90;;;;;;4994895;28;20503;-72
2021/11/23 00:09:52;;;;;;;111.65;40.50;;;0.10;99.90;;;;;;4994249;28;20045;-72
2021/11/23 00:12:18;;;;;;;91.05;35.15;;;0.10;99.90;;;;;;4994775;28;20029;-73
2021/11/23 00:14:43;;;;;;;98.35;35.97;;;0.10;99.90;;;;;;4994262;28;20403;-72
2021/11/23 00:17:09;;;;;;;75.38;31.65;;;0.10;99.90;;;;;;4994714;28;20077;-73
2021/11/23 00:19:35;;;;;;;78.03;30.15;;;0.00;99.90;;;;;;4994193;28;20085;-72
2021/11/23 00:22:00;;;;;;;60.08;24.27;;;0.00;99.90;;;;;;4994398;28;20038;-73
2021/11/23 00:24:26;;;;;;;77.75;30.05;;;0.00;99.90;;;;;;4993199;28;20023;-72
2021/11/23 00:26:51;;;;;;;106.05;36.97;;;0.00;99.90;;;;;;4994076;28;20050;-73
2021/11/23 00:29:17;;;;;;;108.95;40.28;;;0.00;99.90;;;;;;4976960;28;20018;-72
2021/11/23 00:31:43;;;;;;;71.38;30.23;;;0.00;99.90;;;;;;4993872;28;20022;-72
2021/11/23 00:34:08;;;;;;;47.83;25.15;;;0.00;99.90;;;;;;4976755;28;20034;-73
2021/11/23 00:36:34;;;;;;;63.05;27.30;;;0.00;99.90;;;;;;4993916;28;20025;-73
2021/11/23 00:38:59;;;;;;;71.30;30.27;;;0.00;99.90;;;;;;4994213;28;20031;-72
2021/11/23 00:41:25;;;;;;;101.57;40.97;;;0.10;99.90;;;;;;4976371;28;20443;-72
2021/11/23 00:43:51;;;;;;;104.72;41.85;;;0.10;99.90;;;;;;4994124;28;20423;-74
2021/11/23 00:46:17;;;;;;;96.10;38.42;;;0.10;99.90;;;;;;4993501;28;20058;-72
2021/11/23 00:48:44;;;;;;;79.80;33.50;;;0.10;99.90;;;;;;4994135;28;20031;-73
2021/11/23 00:51:10;;;;;;;68.22;27.38;;;0.10;99.90;;;;;;4982759;28;20033;-72
2021/11/23 00:53:36;;;;;;;65.35;29.08;;;0.10;99.90;;;;;;4994061;28;20026;-72
2021/11/23 00:56:03;;;;;;;71.03;29.70;;;0.10;99.90;;;;;;4993537;28;20053;-73
2021/11/23 00:58:29;;;;;;;50.28;25.30;;;0.10;99.90;;;;;;4993991;28;20117;-73
2021/11/23 01:00:54;;;;;;;58.08;27.65;;;0.20;99.90;;;;;;4993435;28;20050;-72
2021/11/23 01:03:20;;;;;;;64.47;27.70;;;0.20;99.90;;;;;;4976433;28;20084;-72
2021/11/23 01:05:46;;;;;;;74.57;30.13;;;0.20;99.90;;;;;;4975988;28;20080;-72
2021/11/23 01:08:13;;;;;;;73.68;31.63;;;0.20;99.90;;;;;;4993787;28;20049;-73
2021/11/23 01:10:39;;;;;;;74.15;31.77;;;0.20;99.90;;;;;;4993304;28;20046;-72
2021/11/23 01:13:05;;;;;;;59.78;30.08;;;0.20;99.90;;;;;;4993734;28;20492;-73
2021/11/23 01:15:31;;;;;;;97.30;42.45;;;0.20;99.90;;;;;;4993256;28;20399;-73
2021/11/23 01:17:56;;;;;;;70.53;32.03;;;0.20;99.90;;;;;;4975483;28;20018;-74
2021/11/23 01:20:23;;;;;;;70.40;29.88;;;0.20;99.90;;;;;;4993164;28;20084;-72
2021/11/23 01:22:49;;;;;;;77.43;30.80;;;0.20;99.90;;;;;;4993593;28;20503;-73
2021/11/23 01:25:15;;;;;;;117.55;48.03;;;0.20;99.90;;;;;;4993029;28;20019;-73
2021/11/23 01:27:41;;;;;;;92.40;41.97;;;0.20;99.90;;;;;;4993618;28;20022;-73
2021/11/23 01:30:09;;;;;;;84.68;35.33;;;0.20;99.90;;;;;;4992928;28;20027;-73
2021/11/23 01:32:35;;;;;;;88.18;34.15;;;0.20;99.90;;;;;;4993572;28;20093;-72
2021/11/23 01:35:01;;;;;;;100.57;40.80;;;0.20;99.90;;;;;;4993036;28;20026;-73
2021/11/23 01:37:26;;;;;;;80.63;33.55;;;0.30;99.90;;;;;;4976103;28;20030;-73
2021/11/23 01:39:53;;;;;;;74.55;30.98;;;0.30;99.90;;;;;;4992822;28;20081;-73
2021/11/23 01:42:18;;;;;;;96.72;38.20;;;0.30;99.90;;;;;;4993443;28;20030;-73
2021/11/23 01:44:45;;;;;;;93.35;36.92;;;0.30;99.90;;;;;;4993134;28;20023;-73
2021/11/23 01:47:11;;;;;;;89.78;35.42;;;0.30;99.90;;;;;;4993398;28;20019;-73
2021/11/23 01:49:36;;;;;;;75.63;32.22;;;0.30;99.90;;;;;;4992998;28;20487;-73
2021/11/23 01:52:03;;;;;;;97.45;39.20;;;0.30;99.90;;;;;;4993316;28;20034;-73
2021/11/23 01:54:29;;;;;;;107.60;42.80;;;0.30;99.90;;;;;;4992945;28;20038;-72
2021/11/23 01:56:55;;;;;;;80.18;37.35;;;0.30;99.90;;;;;;4993268;28;20023;-73
2021/11/23 01:59:21;;;;;;;67.78;34.78;;;0.30;99.90;;;;;;4992652;28;20019;-72
2021/11/23 02:01:46;;;;;;;70.72;33.50;;;0.40;99.90;;;;;;4993226;28;20033;-72
2021/11/23 02:04:12;;;;;;;71.47;32.92;;;0.40;99.90;;;;;;4993299;28;20150;-72
2021/11/23 02:06:38;;;;;;;58.65;26.65;;;0.40;99.90;;;;;;4992794;28;20038;-72
2021/11/23 02:09:04;;;;;;;55.53;26.63;;;0.40;99.90;;;;;;4993135;28;20033;-72
2021/11/23 02:11:30;;;;;;;52.33;25.50;;;0.40;99.90;;;;;;4992802;28;20022;-73
2021/11/23 02:13:55;;;;;;;55.90;27.65;;;0.40;99.90;;;;;;4993151;28;20101;-73
2021/11/23 02:16:22;;;;;;;51.60;24.48;;;0.40;99.90;;;;;;4992756;28;20034;-73
2021/11/23 02:18:47;;;;;;;47.38;25.20;;;0.40;99.90;;;;;;4993056;28;20029;-73
2021/11/23 02:21:13;;;;;;;43.70;22.50;;;0.40;99.90;;;;;;4992603;28;20034;-73
2021/11/23 02:23:39;;;;;;;48.05;24.35;;;0.50;99.90;;;;;;4993039;28;20396;-73
2021/11/23 02:26:05;;;;;;;44.30;23.75;;;0.50;99.90;;;;;;4975109;28;20026;-73
2021/11/23 02:28:31;;;;;;;53.80;27.02;;;0.50;99.90;;;;;;4994075;28;20046;-72
2021/11/23 02:30:59;;;;;;;52.85;26.70;;;0.50;99.90;;;;;;4978628;28;20023;-73
2021/11/23 02:33:26;;;;;;;49.45;22.80;;;0.50;99.90;;;;;;4996677;28;20019;-72
2021/11/23 02:35:55;;;;;;;45.70;23.77;;;0.50;99.90;;;;;;4996345;28;20080;-73
2021/11/23 02:38:22;;;;;;;46.03;26.38;;;0.50;99.90;;;;;;4996463;28;20022;-73
2021/11/23 02:40:48;;;;;;;53.40;28.55;;;0.50;99.90;;;;;;4996053;28;20092;-73
2021/11/23 02:43:14;;;;;;;48.10;26.25;;;0.50;99.90;;;;;;4996699;28;20396;-73
2021/11/23 02:45:40;;;;;;;65.53;33.78;;;0.50;99.90;;;;;;4978410;28;20027;-74
2021/11/23 02:48:09;;;;;;;72.85;38.92;;;0.40;99.90;;;;;;4996319;28;20030;-73
2021/11/23 02:50:35;;;;;;;47.65;25.05;;;0.40;99.90;;;;;;4995826;28;20479;-73
2021/11/23 02:53:00;;;;;;;51.72;28.52;;;0.40;99.90;;;;;;4978746;28;20077;-73
2021/11/23 02:55:31;;;;;;;47.25;24.77;;;0.40;99.90;;;;;;4995699;28;20031;-73
2021/11/23 02:57:57;;;;;;;45.50;23.95;;;0.40;99.90;;;;;;4996247;28;20041;-73
2021/11/23 03:00:26;;;;;;;41.97;21.70;;;0.40;99.90;;;;;;4995627;28;20030;-73
2021/11/23 03:02:53;;;;;;;51.05;28.00;;;0.40;99.90;;;;;;4996034;28;20042;-73
2021/11/23 03:05:22;;;;;;;41.10;22.42;;;0.50;99.90;;;;;;4995674;28;20014;-73
2021/11/23 03:07:49;;;;;;;43.70;26.17;;;0.50;99.90;;;;;;4978456;28;20106;-73
2021/11/23 03:10:18;;;;;;;38.35;20.25;;;0.50;99.90;;;;;;4995477;28;20105;-73
2021/11/23 03:12:49;;;;;;;21.35;12.80;;;0.40;99.90;;;;;;4978423;28;20022;-72
2021/11/23 03:15:17;;;;;;;26.23;14.25;;;0.40;99.90;;;;;;4995425;28;20042;-72
2021/11/23 03:17:43;;;;;;;31.45;17.20;;;0.50;99.90;;;;;;4995624;28;20105;-73
2021/11/23 03:20:12;;;;;;;42.20;24.10;;;0.50;99.90;;;;;;4977797;28;20045;-72
2021/11/23 03:22:38;;;;;;;47.58;25.20;;;0.50;99.90;;;;;;4978233;28;20117;-73
2021/11/23 03:25:05;;;;;;;38.00;22.33;;;0.50;99.90;;;;;;4995234;28;20018;-73
2021/11/23 03:27:31;;;;;;;36.55;20.77;;;0.50;99.90;;;;;;4978207;28;20029;-73
2021/11/23 03:29:57;;;;;;;19.48;10.02;;;0.50;99.90;;;;;;4977705;28;20120;-72
2021/11/23 03:32:23;;;;;;;18.05;10.48;;;0.50;99.90;;;;;;4995692;28;20106;-73
2021/11/23 03:34:50;;;;;;;21.35;12.23;;;0.50;99.90;;;;;;4995142;28;20030;-73
2021/11/23 03:37:21;;;;;;;21.83;11.60;;;0.50;99.90;;;;;;4995500;28;20022;-73
2021/11/23 03:39:49;;;;;;;14.45;9.30;;;0.50;99.90;;;;;;4994458;28;20018;-73
2021/11/23 03:42:14;;;;;;;17.73;10.23;;;0.50;99.90;;;;;;4995312;28;20434;-73
2021/11/23 03:44:40;;;;;;;392.35;128.65;;;0.50;99.90;;;;;;4994871;28;20048;-73
2021/11/23 03:47:08;;;;;;;367.92;132.95;;;0.40;99.90;;;;;;4995243;28;20026;-73
2021/11/23 03:49:35;;;;;;;98.63;37.08;;;0.40;99.90;;;;;;4995002;28;20041;-73
2021/11/23 03:52:02;;;;;;;54.45;21.35;;;0.40;99.90;;;;;;4994284;28;20484;-72
2021/11/23 03:54:28;;;;;;;27.80;15.98;;;0.40;99.90;;;;;;4983784;28;20114;-73
2021/11/23 03:56:54;;;;;;;26.63;13.95;;;0.40;99.90;;;;;;4994659;28;20547;-73
2021/11/23 03:59:21;;;;;;;25.83;15.13;;;0.40;99.90;;;;;;4994941;28;20023;-73
2021/11/23 04:01:47;;;;;;;10.35;6.35;;;0.40;99.90;;;;;;4994610;28;20415;-73
2021/11/23 04:04:12;;;;;;;17.60;10.48;;;0.40;99.90;;;;;;4994928;28;20072;-72
2021/11/23 04:06:38;;;;;;;28.50;16.83;;;0.50;99.90;;;;;;4994567;28;20034;-73
2021/11/23 04:09:04;;;;;;;14.93;9.70;;;0.50;99.90;;;;;;4994683;28;20029;-72
2021/11/23 04:11:30;;;;;;;12.00;6.43;;;0.50;99.90;;;;;;4994513;28;20027;-73
2021/11/23 04:13:56;;;;;;;16.30;10.32;;;0.50;99.90;;;;;;4994756;28;20353;-73
2021/11/23 04:16:23;;;;;;;13.55;8.80;;;0.50;99.90;;;;;;4976774;28;20026;-73
2021/11/23 04:18:50;;;;;;;10.93;6.55;;;0.50;99.90;;;;;;4994628;28;20026;-72
2021/11/23 04:21:17;;;;;;;9.43;6.03;;;0.50;99.90;;;;;;4994168;28;20026;-73
2021/11/23 04:23:43;;;;;;;8.30;6.13;;;0.50;99.90;;;;;;4994488;28;20041;-74
2021/11/23 04:26:09;;;;;;;10.07;5.47;;;0.50;99.90;;;;;;4994084;28;20026;-72
2021/11/23 04:28:34;;;;;;;7.95;4.80;;;0.40;99.90;;;;;;4994372;28;20033;-72
2021/11/23 04:31:00;;;;;;;6.05;4.85;;;0.40;99.90;;;;;;4993870;28;20431;-73
2021/11/23 04:33:25;;;;;;;7.30;5.07;;;0.40;99.90;;;;;;4994274;28;20391;-74
2021/11/23 04:35:51;;;;;;;8.57;5.07;;;0.40;99.90;;;;;;4993849;28;20113;-73
2021/11/23 04:38:17;;;;;;;7.68;5.22;;;0.40;99.90;;;;;;4994268;28;20022;-73
2021/11/23 04:40:43;;;;;;;9.65;5.80;;;0.40;99.90;;;;;;4993721;28;20480;-73
2021/11/23 04:43:09;;;;;;;8.88;5.90;;;0.50;99.90;;;;;;4994174;28;20030;-73
2021/11/23 04:45:36;;;;;;;6.13;4.80;;;0.40;99.90;;;;;;4976292;28;20031;-73
2021/11/23 04:48:03;;;;;;;8.15;5.88;;;0.50;99.90;;;;;;4994261;28;20010;-73
2021/11/23 04:50:29;;;;;;;6.22;5.18;;;0.50;99.90;;;;;;4993790;28;20029;-72
2021/11/23 04:52:55;;;;;;;7.20;5.20;;;0.40;99.90;;;;;;4975765;28;20061;-73
2021/11/23 04:55:21;;;;;;;7.80;5.28;;;0.30;99.90;;;;;;4976173;28;20045;-73
2021/11/23 04:57:47;;;;;;;6.68;4.03;;;0.30;99.90;;;;;;4994020;28;20022;-73
2021/11/23 05:00:16;;;;;;;4.40;4.00;;;0.30;99.90;;;;;;4993430;28;20499;-73
2021/11/23 05:02:43;;;;;;;7.07;4.70;;;0.30;99.90;;;;;;4993819;28;20034;-73
2021/11/23 05:05:09;;;;;;;6.22;4.32;;;0.20;99.90;;;;;;4993436;28;20101;-73
2021/11/23 05:07:35;;;;;;;8.18;5.63;;;0.20;99.90;;;;;;4993906;28;20029;-73
2021/11/23 05:10:01;;;;;;;8.88;5.00;;;0.10;99.90;;;;;;4993357;28;20523;-73
2021/11/23 05:12:26;;;;;;;8.68;5.85;;;0.10;99.90;;;;;;4993766;28;20026;-73
2021/11/23 05:14:52;;;;;;;9.48;6.68;;;0.10;99.90;;;;;;4974741;28;20035;-73
2021/11/23 05:17:18;;;;;;;9.13;5.72;;;0.10;99.90;;;;;;4993693;28;20027;-72
2021/11/23 05:19:44;;;;;;;9.63;5.90;;;0.00;99.90;;;;;;4975670;28;20033;-72
2021/11/23 05:22:10;;;;;;;8.35;7.10;;;0.00;99.90;;;;;;4993667;28;20026;-73
2021/11/23 05:24:36;;;;;;;11.35;6.30;;;-0.10;99.90;;;;;;4993175;28;20026;-72
2021/11/23 05:27:03;;;;;;;8.82;6.32;;;-0.10;99.90;;;;;;4976182;28;20026;-72
2021/11/23 05:29:28;;;;;;;8.00;6.18;;;-0.10;99.90;;;;;;4993054;28;20090;-73
2021/11/23 05:31:54;;;;;;;8.98;5.90;;;-0.20;99.90;;;;;;4982677;28;20022;-73
2021/11/23 05:34:20;;;;;;;9.55;6.20;;;-0.20;99.90;;;;;;4993237;28;20388;-73
2021/11/23 05:36:46;;;;;;;14.30;7.43;;;-0.30;99.90;;;;;;4975181;28;20054;-73
2021/11/23 05:39:12;;;;;;;11.02;6.47;;;-0.30;99.90;;;;;;4993489;28;20081;-72
2021/11/23 05:41:38;;;;;;;10.02;6.95;;;-0.40;99.90;;;;;;4992998;28;20019;-73
2021/11/23 05:44:04;;;;;;;11.23;7.50;;;-0.40;99.90;;;;;;4993199;28;20034;-72
2021/11/23 05:46:30;;;;;;;12.65;8.25;;;-0.40;99.90;;;;;;4975580;28;20034;-72
2021/11/23 05:48:56;;;;;;;21.77;9.95;;;-0.40;99.90;;;;;;4993150;28;20029;-72
2021/11/23 05:51:22;;;;;;;14.70;9.48;;;-0.40;99.90;;;;;;4992504;28;20057;-72
2021/11/23 05:53:48;;;;;;;60.17;20.63;;;-0.40;99.90;;;;;;4972328;28;20022;-73
2021/11/23 05:56:14;;;;;;;268.80;91.50;;;-0.50;99.90;;;;;;4971677;28;20030;-72
2021/11/23 05:58:40;;;;;;;41.38;17.42;;;-0.50;99.90;;;;;;4993074;28;20554;-72
2021/11/23 06:01:06;;;;;;;21.10;10.10;;;-0.50;99.90;;;;;;4986233;28;20018;-73
2021/11/23 06:03:32;;;;;;;24.95;12.20;;;-0.60;99.90;;;;;;4993660;28;20031;-73
2021/11/23 06:05:57;;;;;;;37.63;15.80;;;-0.60;99.90;;;;;;4996163;28;20446;-73
2021/11/23 06:08:23;;;;;;;77.60;28.85;;;-0.60;99.90;;;;;;4996468;28;20046;-74
2021/11/23 06:10:49;;;;;;;169.25;55.17;;;-0.60;99.90;;;;;;4995456;28;20022;-72
2021/11/23 06:13:15;;;;;;;52.33;18.75;;;-0.60;99.90;;;;;;4978725;28;20049;-75
2021/11/23 06:15:44;;;;;;;30.52;12.77;;;-0.70;99.90;;;;;;4995480;28;20025;-75
2021/11/23 06:18:13;;;;;;;175.68;57.88;;;-0.70;99.90;;;;;;4977642;28;20074;-75
2021/11/23 06:20:39;;;;;;;163.35;52.90;;;-0.70;99.90;;;;;;4995047;28;20460;-72
2021/11/23 06:23:04;;;;;;;18.77;10.20;;;-0.70;99.90;;;;;;4995990;28;20048;-72
2021/11/23 06:25:30;;;;;;;20.33;11.35;;;-0.80;99.90;;;;;;4994756;28;20058;-75
2021/11/23 06:27:56;;;;;;;18.95;10.90;;;-0.80;99.90;;;;;;4976656;28;20061;-75
2021/11/23 06:30:22;;;;;;;18.85;11.13;;;-0.80;99.90;;;;;;4973795;28;20073;-75
2021/11/23 06:32:48;;;;;;;21.35;12.00;;;-0.80;99.90;;;;;;4976588;28;20465;-75
2021/11/23 06:35:15;;;;;;;22.23;13.18;;;-0.90;99.90;;;;;;4977859;28;20053;-75
2021/11/23 06:37:42;;;;;;;18.50;12.02;;;-0.90;99.90;;;;;;4978207;28;20089;-75
2021/11/23 06:40:10;;;;;;;26.40;13.45;;;-0.90;99.90;;;;;;4994467;28;20046;-75
2021/11/23 06:42:36;;;;;;;24.35;12.13;;;-0.90;99.90;;;;;;4996231;28;20038;-75
2021/11/23 06:45:03;;;;;;;30.05;13.23;;;-1.00;99.90;;;;;;4995997;28;20093;-75
2021/11/23 06:47:29;;;;;;;38.20;17.38;;;-0.90;99.90;;;;;;4996307;28;20030;-75
2021/11/23 06:49:55;;;;;;;46.35;22.33;;;-0.90;99.90;;;;;;4995948;28;20022;-75
2021/11/23 06:52:22;;;;;;;81.82;32.85;;;-0.90;99.90;;;;;;4995843;28;20022;-75
2021/11/23 06:54:48;;;;;;;84.45;36.22;;;-0.90;99.90;;;;;;4995408;28;20357;-75
2021/11/23 06:57:14;;;;;;;43.53;19.52;;;-0.80;99.90;;;;;;4978315;28;20034;-76
2021/11/23 06:59:40;;;;;;;31.13;16.88;;;-0.80;99.90;;;;;;4994107;28;20031;-76
2021/11/23 07:02:07;;;;;;;30.35;17.30;;;-0.70;99.90;;;;;;4976809;28;20030;-75
2021/11/23 07:04:33;;;;;;;30.90;16.88;;;-0.70;99.90;;;;;;4976537;28;20483;-75
2021/11/23 07:06:59;;;;;;;43.17;22.95;;;-0.70;99.90;;;;;;4975639;28;20014;-75
2021/11/23 07:09:24;;;;;;;40.42;20.17;;;-0.70;99.90;;;;;;4976737;28;20021;-75
2021/11/23 07:11:50;;;;;;;32.60;16.77;;;-0.70;99.90;;;;;;4994012;28;20057;-75
2021/11/23 07:14:16;;;;;;;29.00;14.98;;;-0.60;99.90;;;;;;4994240;28;20022;-75
2021/11/23 07:16:42;;;;;;;30.35;15.32;;;-0.70;99.90;;;;;;4993407;28;20476;-75
2021/11/23 07:19:08;;;;;;;28.38;14.85;;;-0.60;99.90;;;;;;4995039;28;20022;-75
2021/11/23 07:21:34;;;;;;;30.17;16.05;;;-0.60;99.90;;;;;;4993363;28;20397;-75
2021/11/23 07:24:00;;;;;;;32.20;16.58;;;-0.60;99.90;;;;;;4993501;28;20045;-75
2021/11/23 07:26:27;;;;;;;28.60;16.13;;;-0.60;99.90;;;;;;4975728;28;20314;-75
2021/11/23 07:28:53;;;;;;;27.70;15.07;;;-0.50;99.90;;;;;;4994090;28;20034;-75
2021/11/23 07:31:18;;;;;;;31.90;17.02;;;-0.50;99.90;;;;;;4994462;28;20027;-75
2021/11/23 07:33:44;;;;;;;52.47;24.23;;;-0.40;99.90;;;;;;4993088;28;20391;-75
2021/11/23 07:36:10;;;;;;;43.30;23.10;;;-0.30;99.90;;;;;;4994618;28;20081;-75
2021/11/23 07:38:36;;;;;;;35.50;18.15;;;-0.20;99.90;;;;;;4995447;28;20022;-75
2021/11/23 07:41:01;;;;;;;28.13;15.55;;;-0.30;99.90;;;;;;4977357;28;20046;-75
2021/11/23 07:43:27;;;;;;;28.98;16.02;;;-0.30;99.90;;;;;;4995366;28;20038;-75
2021/11/23 07:45:53;;;;;;;32.08;17.42;;;-0.20;99.90;;;;;;4994626;28;20454;-75
2021/11/23 07:48:18;;;;;;;34.95;18.75;;;-0.20;99.90;;;;;;4993541;28;20101;-75
2021/11/23 07:50:44;;;;;;;31.00;16.15;;;-0.20;99.90;;;;;;4975149;28;20153;-75
2021/11/23 07:53:10;;;;;;;21.98;14.15;;;-0.10;99.90;;;;;;4975712;28;20010;-76
2021/11/23 07:55:36;;;;;;;29.60;15.77;;;0.00;99.90;;;;;;4992696;28;20050;-75
2021/11/23 07:58:02;;;;;;;33.03;17.33;;;0.00;99.90;;;;;;4992229;28;20015;-75
2021/11/23 08:00:29;;;;;;;31.40;16.27;;;0.10;99.90;;;;;;4992905;28;20023;-75
2021/11/23 08:02:55;;;;;;;28.58;16.10;;;0.10;99.90;;;;;;4994771;28;20030;-75
2021/11/23 08:05:22;;;;;;;26.48;16.40;;;0.10;99.90;;;;;;4994711;28;20019;-73
2021/11/23 08:07:47;;;;;;;24.00;14.95;;;0.20;99.90;;;;;;4994937;28;20392;-73
2021/11/23 08:10:13;;;;;;;23.10;13.48;;;0.30;99.90;;;;;;4994461;28;20035;-73
2021/11/23 08:12:39;;;;;;;25.77;13.48;;;0.30;99.90;;;;;;4994891;28;20085;-74
2021/11/23 08:15:05;;;;;;;23.73;13.93;;;0.30;99.90;;;;;;4994322;28;20472;-73
2021/11/23 08:17:31;;;;;;;33.25;17.83;;;0.30;99.90;;;;;;4977294;28;20026;-73
2021/11/23 08:19:57;;;;;;;21.80;12.77;;;0.40;99.90;;;;;;4976517;28;20037;-73
2021/11/23 08:22:23;;;;;;;18.42;10.77;;;0.40;99.90;;;;;;4994625;28;20034;-74
2021/11/23 08:24:49;;;;;;;21.60;14.00;;;0.40;99.90;;;;;;4976598;28;20030;-73
2021/11/23 08:27:15;;;;;;;20.13;11.73;;;0.50;99.90;;;;;;4994484;28;20030;-73
2021/11/23 08:29:41;;;;;;;19.42;11.10;;;0.60;99.90;;;;;;4994034;28;20029;-73
2021/11/23 08:32:07;;;;;;;18.30;10.43;;;0.60;99.90;;;;;;4977017;28;20034;-73
2021/11/23 08:34:33;;;;;;;16.52;10.60;;;0.60;99.90;;;;;;4993944;28;20038;-73
2021/11/23 08:37:00;;;;;;;18.75;10.05;;;0.70;99.90;;;;;;4994286;28;20606;-73
2021/11/23 08:39:26;;;;;;;14.02;8.65;;;0.80;99.90;;;;;;4976385;28;20030;-73
2021/11/23 08:41:51;;;;;;;11.65;8.15;;;0.90;99.90;;;;;;4994330;28;20034;-73
2021/11/23 08:44:17;;;;;;;14.00;7.93;;;0.90;99.90;;;;;;4993838;28;20034;-73
2021/11/23 08:46:43;;;;;;;13.68;9.05;;;0.90;99.90;;;;;;4994192;28;20388;-73
2021/11/23 08:49:08;;;;;;;15.98;6.95;;;1.00;99.90;;;;;;4994181;28;20392;-73
2021/11/23 08:51:36;;;;;;;12.75;7.35;;;1.10;99.90;;;;;;4993673;28;20025;-73
2021/11/23 08:54:02;;;;;;;8.75;7.03;;;1.10;99.90;;;;;;4994037;28;20097;-73
2021/11/23 08:56:34;;;;;;;10.43;6.93;;;1.10;99.90;;;;;;4976122;28;20097;-73
2021/11/23 08:59:01;;;;;;;9.27;6.35;;;1.20;99.90;;;;;;4993574;28;20018;-73
2021/11/23 09:01:28;;;;;;;8.80;6.30;;;1.30;99.90;;;;;;4993598;28;20019;-73
2021/11/23 09:03:55;;;;;;;11.52;6.72;;;1.30;99.90;;;;;;4993881;28;20129;-74
2021/11/23 09:06:24;;;;;;;8.05;6.68;;;1.40;99.90;;;;;;4993376;28;20030;-73
2021/11/23 09:08:57;;;;;;;9.75;5.72;;;1.40;99.90;;;;;;4993879;28;20150;-73
2021/11/23 09:11:23;;;;;;;7.43;5.25;;;1.50;99.90;;;;;;4993442;28;20041;-73
2021/11/23 09:13:50;;;;;;;8.35;5.57;;;1.50;99.90;;;;;;4993749;28;20023;-74
2021/11/23 09:16:15;;;;;;;8.65;6.05;;;1.50;99.90;;;;;;4993249;28;20427;-73
2021/11/23 09:18:41;;;;;;;13.00;6.57;;;1.60;99.90;;;;;;4993660;28;20022;-74
2021/11/23 09:21:07;;;;;;;7.90;5.47;;;1.70;99.90;;;;;;4993268;28;20022;-73
2021/11/23 09:23:33;;;;;;;8.00;5.95;;;1.70;99.90;;;;;;4976247;28;20042;-73
2021/11/23 09:25:58;;;;;;;9.23;6.63;;;1.80;99.90;;;;;;4975654;28;20391;-73
2021/11/23 09:28:24;;;;;;;10.80;7.45;;;1.80;99.90;;;;;;4993616;28;20081;-73
2021/11/23 09:30:49;;;;;;;12.45;8.50;;;1.90;99.90;;;;;;4993099;28;20506;-73
2021/11/23 09:33:16;;;;;;;12.00;7.53;;;1.90;99.90;;;;;;4993552;28;20032;-73
2021/11/23 09:35:42;;;;;;;11.80;7.07;;;2.10;99.90;;;;;;4993356;28;20030;-73
2021/11/23 09:38:08;;;;;;;11.15;8.18;;;2.00;98.90;;;;;;4993019;28;20507;-74
2021/11/23 09:40:34;;;;;;;12.70;8.45;;;2.00;99.90;;;;;;4992656;28;20023;-73
2021/11/23 09:43:00;;;;;;;10.30;7.63;;;2.00;96.30;;;;;;4993302;28;20125;-74
2021/11/23 09:45:26;;;;;;;15.10;7.97;;;2.10;97.10;;;;;;4992979;28;20105;-73
2021/11/23 09:47:52;;;;;;;15.38;7.93;;;2.10;95.70;;;;;;4993491;28;20108;-73
2021/11/23 09:50:18;;;;;;;11.05;7.53;;;2.20;92.40;;;;;;4992963;28;20025;-73
2021/11/23 09:52:45;;;;;;;8.88;7.32;;;2.20;91.10;;;;;;4993295;28;20033;-74
2021/11/23 09:55:13;;;;;;;10.60;7.50;;;2.30;92.10;;;;;;4992651;28;20479;-73
2021/11/23 09:57:39;;;;;;;11.50;7.10;;;2.30;90.20;;;;;;4993381;28;20034;-73
2021/11/23 10:00:23;;;;;;;14.00;7.90;;;2.20;86.00;;;;;;4974768;28;20400;-73
2021/11/23 10:02:49;;;;;;;9.55;7.03;;;2.30;88.30;;;;;;4993250;28;20451;-73
2021/11/23 10:05:15;;;;;;;10.60;8.00;;;2.30;86.90;;;;;;4992647;28;20018;-73
2021/11/23 10:07:45;;;;;;;14.13;8.93;;;2.30;86.60;;;;;;4993291;28;20488;-73
2021/11/23 10:10:24;;;;;;;12.38;7.82;;;2.30;85.70;;;;;;4975184;28;20049;-73
2021/11/23 10:12:50;;;;;;;9.13;7.10;;;2.40;85.80;;;;;;4993240;28;20018;-73
2021/11/23 10:15:19;;;;;;;13.35;8.48;;;2.40;84.30;;;;;;4992747;28;20030;-73
2021/11/23 10:17:48;;;;;;;11.02;7.35;;;2.40;84.80;;;;;;4993182;28;20349;-73
2021/11/23 10:20:23;;;;;;;12.70;8.27;;;2.50;88.90;;;;;;4989812;28;20033;-73
2021/11/23 10:22:49;;;;;;;13.35;7.30;;;2.50;85.30;;;;;;4990142;28;20026;-73
2021/11/23 10:25:14;;;;;;;10.48;7.30;;;2.60;84.50;;;;;;4991331;28;20022;-73
2021/11/23 10:27:44;;;;;;;10.02;7.53;;;2.60;85.10;;;;;;4973406;28;20495;-74
2021/11/23 10:30:10;;;;;;;11.57;7.20;;;2.60;83.70;;;;;;4989428;28;20050;-73
2021/11/23 10:32:41;;;;;;;13.50;8.00;;;2.60;82.20;;;;;;4974988;28;20562;-73
2021/11/23 10:35:16;;;;;;;13.02;9.30;;;2.70;86.60;;;;;;4991149;28;20433;-73
2021/11/23 10:37:42;;;;;;;57.65;28.15;;;2.80;86.90;;;;;;4991296;28;20030;-73
2021/11/23 10:40:14;;;;;;;13.90;6.82;;;3.00;86.10;;;;;;4992151;28;20026;-73
2021/11/23 10:42:41;;;;;;;8.53;5.50;;;3.10;79.00;;;;;;4992603;28;20046;-73
2021/11/23 10:45:11;;;;;;;8.48;6.38;;;3.00;80.50;;;;;;4991736;28;20097;-73
2021/11/23 10:47:42;;;;;;;9.80;6.15;;;3.00;82.30;;;;;;4992593;28;20034;-74
2021/11/23 10:50:10;;;;;;;13.27;6.85;;;3.00;81.20;;;;;;4990572;28;20022;-73
2021/11/23 10:52:44;;;;;;;39.13;16.25;;;3.00;82.10;;;;;;4991857;28;20038;-73
2021/11/23 10:55:36;;;;;;;12.13;6.55;;;3.00;80.60;;;;;;4993642;28;20069;-73
2021/11/23 10:58:04;;;;;;;9.95;4.97;;;3.10;82.00;;;;;;4993254;28;20019;-73
2021/11/23 11:00:32;;;;;;;14.73;7.57;;;3.20;78.70;;;;;;4992575;28;20072;-73
2021/11/23 11:03:02;;;;;;;8.75;6.18;;;3.20;79.30;;;;;;4993212;28;20046;-74
2021/11/23 11:05:34;;;;;;;13.40;7.75;;;3.20;79.10;;;;;;4991677;28;20030;-73
2021/11/23 11:08:00;;;;;;;11.82;7.22;;;3.10;80.00;;;;;;4991915;28;20497;-74
2021/11/23 11:10:28;;;;;;;10.90;6.53;;;3.10;80.40;;;;;;4991794;28;20615;-73
2021/11/23 11:12:54;;;;;;;9.50;5.47;;;3.10;80.40;;;;;;4991790;28;20034;-73
2021/11/23 11:15:25;;;;;;;13.80;5.45;;;3.20;80.90;;;;;;4986863;28;20520;-74
2021/11/23 11:17:51;;;;;;;15.23;7.57;;;3.20;80.20;;;;;;4995202;28;20369;-74
2021/11/23 11:20:45;;;;;;;15.07;6.22;;;3.40;81.60;;;;;;4984283;28;20029;-73
2021/11/23 11:23:13;;;;;;;;;;;3.50;80.90;;;;;;4977982;28;20043;-73
2021/11/23 11:26:13;;;;;;;9.85;6.13;;;3.40;79.70;;;;;;4995292;28;19906;-73
2021/11/23 11:28:52;;;;;;;10.40;5.38;;;3.50;82.70;;;;;;4995734;28;20026;-73
2021/11/23 11:31:44;;;;;;;8.68;5.80;;;3.40;80.30;;;;;;4987867;28;20018;-73
2021/11/23 11:34:26;;;;;;;56.88;18.48;;;3.40;79.90;;;;;;4993863;28;20022;-73
2021/11/23 11:37:06;;;;;;;9.57;5.63;;;3.40;82.00;;;;;;4984287;28;20546;-74
2021/11/23 11:39:37;;;;;;;8.70;5.38;;;3.40;82.00;;;;;;4992644;28;20148;-74
2021/11/23 11:42:11;;;;;;;10.68;6.00;;;3.40;82.90;;;;;;4983650;28;20078;-73
2021/11/23 11:44:40;;;;;;;8.75;6.00;;;3.50;85.60;;;;;;4993983;28;20087;-74
2021/11/23 11:47:11;;;;;;;12.40;6.60;;;3.40;85.70;;;;;;4993165;28;20030;-73
2021/11/23 11:49:50;;;;;;;16.23;8.38;;;3.50;85.80;;;;;;4993786;28;20034;-73
2021/11/23 11:52:24;;;;;;;7.38;5.75;;;3.40;87.50;;;;;;4979613;28;20415;-73
2021/11/23 11:55:11;;;;;;;11.05;5.93;;;3.40;87.20;;;;;;4991829;28;20030;-73
2021/11/23 11:57:40;;;;;;;9.00;5.50;;;3.30;88.50;;;;;;4992492;28;20431;-73
2021/11/23 12:00:26;;;;;;;14.63;6.45;;;3.30;89.30;;;;;;4993544;28;20534;-73
2021/11/23 12:02:54;;;;;;;12.18;6.70;;;3.30;91.10;;;;;;4994217;28;20034;-74
2021/11/23 12:05:20;;;;;;;19.30;9.60;;;3.30;91.90;;;;;;4994511;28;20069;-73
2021/11/23 12:07:48;;;;;;;14.52;8.43;;;3.30;93.90;;;;;;4993363;28;20068;-74
2021/11/23 12:10:28;;;;;;;37.17;17.13;;;3.30;94.20;;;;;;4982593;28;20046;-73
2021/11/23 12:12:56;;;;;;;117.47;49.85;;;3.30;91.90;;;;;;4994900;28;20488;-73
2021/11/23 12:15:36;;;;;;;29.45;17.88;;;3.30;93.70;;;;;;4994340;28;20054;-73
2021/11/23 12:18:34;;;;;;;29.95;16.15;;;3.20;93.70;;;;;;4977065;28;20484;-73
2021/11/23 12:21:15;;;;;;;12.68;7.88;;;3.30;96.30;;;;;;4994196;28;20655;-73
2021/11/23 12:23:55;;;;;;;11.02;6.60;;;3.20;93.90;;;;;;4994375;28;20109;-74
2021/11/23 12:26:27;;;;;;;10.20;6.57;;;3.20;95.30;;;;;;4994193;28;20053;-74
2021/11/23 12:29:02;;;;;;;19.98;10.88;;;3.20;97.00;;;;;;4994573;28;20027;-73
2021/11/23 12:31:32;;;;;;;24.63;14.43;;;3.20;97.10;;;;;;4994123;28;20027;-74
2021/11/23 12:34:02;;;;;;;15.45;8.98;;;3.20;99.90;;;;;;4994481;28;20029;-73
2021/11/23 12:36:38;;;;;;;14.82;8.50;;;3.10;99.90;;;;;;4993859;28;20034;-74
2021/11/23 12:39:15;;;;;;;229.55;100.68;;;3.00;99.90;;;;;;4993967;28;20030;-73
2021/11/23 12:41:42;;;;;;;88.40;47.97;;;2.90;99.90;;;;;;4994365;28;20022;-74